sensor_id;sensor_type;location;lat;lon;timestamp;temperature;humidity
69589;SHT31;56792;50.644;17.984;2024-01-30T00:00:01;3.33;72.78
69589;SHT31;56792;50.644;17.984;2024-01-30T00:02:35;3.33;72.78
69589;SHT31;56792;50.644;17.984;2024-01-30T00:05:07;3.32;72.81
69589;SHT31;56792;50.644;17.984;2024-01-30T00:07:38;3.33;72.86
69589;SHT31;56792;50.644;17.984;2024-01-30T00:10:09;3.31;72.90
69589;SHT31;56792;50.644;17.984;2024-01-30T00:12:41;3.32;72.88
69589;SHT31;56792;50.644;17.984;2024-01-30T00:15:12;3.33;72.98
69589;SHT31;56792;50.644;17.984;2024-01-30T00:17:43;3.34;72.90
69589;SHT31;56792;50.644;17.984;2024-01-30T00:20:14;3.33;73.02
69589;SHT31;56792;50.644;17.984;2024-01-30T00:22:45;3.33;73.07
69589;SHT31;56792;50.644;17.984;2024-01-30T00:25:16;3.30;73.11
69589;SHT31;56792;50.644;17.984;2024-01-30T00:27:47;3.29;73.10
69589;SHT31;56792;50.644;17.984;2024-01-30T00:30:19;3.27;73.18
69589;SHT31;56792;50.644;17.984;2024-01-30T00:32:50;3.26;73.26
69589;SHT31;56792;50.644;17.984;2024-01-30T00:35:22;3.23;73.29
69589;SHT31;56792;50.644;17.984;2024-01-30T00:37:53;3.21;73.36
69589;SHT31;56792;50.644;17.984;2024-01-30T00:40:25;3.20;73.50
69589;SHT31;56792;50.644;17.984;2024-01-30T00:42:56;3.23;73.42
69589;SHT31;56792;50.644;17.984;2024-01-30T00:45:27;3.25;73.38
69589;SHT31;56792;50.644;17.984;2024-01-30T00:47:58;3.22;73.36
69589;SHT31;56792;50.644;17.984;2024-01-30T00:50:29;3.21;73.42
69589;SHT31;56792;50.644;17.984;2024-01-30T00:53:00;3.20;73.43
69589;SHT31;56792;50.644;17.984;2024-01-30T00:55:31;3.20;73.52
69589;SHT31;56792;50.644;17.984;2024-01-30T00:58:02;3.21;73.56
69589;SHT31;56792;50.644;17.984;2024-01-30T01:00:34;3.24;73.50
69589;SHT31;56792;50.644;17.984;2024-01-30T01:03:06;3.25;73.47
69589;SHT31;56792;50.644;17.984;2024-01-30T01:05:37;3.24;73.45
69589;SHT31;56792;50.644;17.984;2024-01-30T01:08:08;3.24;73.55
69589;SHT31;56792;50.644;17.984;2024-01-30T01:10:41;3.23;73.61
69589;SHT31;56792;50.644;17.984;2024-01-30T01:13:12;3.20;73.72
69589;SHT31;56792;50.644;17.984;2024-01-30T01:15:43;3.18;73.80
69589;SHT31;56792;50.644;17.984;2024-01-30T01:18:14;3.18;73.90
69589;SHT31;56792;50.644;17.984;2024-01-30T01:20:45;3.18;73.90
69589;SHT31;56792;50.644;17.984;2024-01-30T01:23:17;3.18;73.97
69589;SHT31;56792;50.644;17.984;2024-01-30T01:25:48;3.18;73.98
69589;SHT31;56792;50.644;17.984;2024-01-30T01:28:19;3.15;74.01
69589;SHT31;56792;50.644;17.984;2024-01-30T01:30:50;3.16;74.00
69589;SHT31;56792;50.644;17.984;2024-01-30T01:33:25;3.14;74.05
69589;SHT31;56792;50.644;17.984;2024-01-30T01:35:56;3.15;74.08
69589;SHT31;56792;50.644;17.984;2024-01-30T01:38:29;3.13;74.15
69589;SHT31;56792;50.644;17.984;2024-01-30T01:41:00;3.12;74.14
69589;SHT31;56792;50.644;17.984;2024-01-30T01:43:31;3.12;74.04
69589;SHT31;56792;50.644;17.984;2024-01-30T01:46:02;3.09;74.25
69589;SHT31;56792;50.644;17.984;2024-01-30T01:48:33;3.07;74.28
69589;SHT31;56792;50.644;17.984;2024-01-30T01:51:06;3.08;74.26
69589;SHT31;56792;50.644;17.984;2024-01-30T01:53:38;3.12;74.18
69589;SHT31;56792;50.644;17.984;2024-01-30T01:56:09;3.12;74.15
69589;SHT31;56792;50.644;17.984;2024-01-30T01:58:41;3.20;73.94
69589;SHT31;56792;50.644;17.984;2024-01-30T02:01:14;3.22;73.82
69589;SHT31;56792;50.644;17.984;2024-01-30T02:03:47;3.22;73.86
69589;SHT31;56792;50.644;17.984;2024-01-30T02:06:18;3.18;73.98
69589;SHT31;56792;50.644;17.984;2024-01-30T02:08:50;3.16;74.04
69589;SHT31;56792;50.644;17.984;2024-01-30T02:11:21;3.16;74.01
69589;SHT31;56792;50.644;17.984;2024-01-30T02:13:53;3.16;74.05
69589;SHT31;56792;50.644;17.984;2024-01-30T02:16:24;3.17;74.09
69589;SHT31;56792;50.644;17.984;2024-01-30T02:18:56;3.17;74.04
69589;SHT31;56792;50.644;17.984;2024-01-30T02:21:27;3.14;74.09
69589;SHT31;56792;50.644;17.984;2024-01-30T02:23:59;3.09;74.20
69589;SHT31;56792;50.644;17.984;2024-01-30T02:26:32;3.09;74.29
69589;SHT31;56792;50.644;17.984;2024-01-30T02:29:03;3.05;74.41
69589;SHT31;56792;50.644;17.984;2024-01-30T02:31:34;3.04;74.44
69589;SHT31;56792;50.644;17.984;2024-01-30T02:34:05;3.02;74.57
69589;SHT31;56792;50.644;17.984;2024-01-30T02:36:36;3.04;74.56
69589;SHT31;56792;50.644;17.984;2024-01-30T02:39:09;3.04;74.55
69589;SHT31;56792;50.644;17.984;2024-01-30T02:41:41;3.01;74.67
69589;SHT31;56792;50.644;17.984;2024-01-30T02:44:12;2.98;74.69
69589;SHT31;56792;50.644;17.984;2024-01-30T02:46:44;2.97;74.75
69589;SHT31;56792;50.644;17.984;2024-01-30T02:49:15;2.96;74.85
69589;SHT31;56792;50.644;17.984;2024-01-30T02:51:46;3.00;74.91
69589;SHT31;56792;50.644;17.984;2024-01-30T02:54:17;3.04;74.76
69589;SHT31;56792;50.644;17.984;2024-01-30T02:56:48;3.01;74.88
69589;SHT31;56792;50.644;17.984;2024-01-30T02:59:19;2.98;74.91
69589;SHT31;56792;50.644;17.984;2024-01-30T03:01:50;2.96;75.06
69589;SHT31;56792;50.644;17.984;2024-01-30T03:04:22;3.00;75.07
69589;SHT31;56792;50.644;17.984;2024-01-30T03:06:53;3.03;74.98
69589;SHT31;56792;50.644;17.984;2024-01-30T03:09:24;3.07;74.94
69589;SHT31;56792;50.644;17.984;2024-01-30T03:11:55;3.04;74.91
69589;SHT31;56792;50.644;17.984;2024-01-30T03:14:26;3.01;75.03
69589;SHT31;56792;50.644;17.984;2024-01-30T03:16:58;2.99;75.01
69589;SHT31;56792;50.644;17.984;2024-01-30T03:19:29;2.98;75.09
69589;SHT31;56792;50.644;17.984;2024-01-30T03:22:00;2.99;75.02
69589;SHT31;56792;50.644;17.984;2024-01-30T03:24:32;2.99;75.09
69589;SHT31;56792;50.644;17.984;2024-01-30T03:27:03;3.00;75.09
69589;SHT31;56792;50.644;17.984;2024-01-30T03:29:34;2.98;75.09
69589;SHT31;56792;50.644;17.984;2024-01-30T03:32:05;2.97;75.15
69589;SHT31;56792;50.644;17.984;2024-01-30T03:34:37;2.95;75.17
69589;SHT31;56792;50.644;17.984;2024-01-30T03:37:08;2.90;75.30
69589;SHT31;56792;50.644;17.984;2024-01-30T03:39:39;2.92;75.28
69589;SHT31;56792;50.644;17.984;2024-01-30T03:42:10;2.95;75.23
69589;SHT31;56792;50.644;17.984;2024-01-30T03:44:42;2.94;75.24
69589;SHT31;56792;50.644;17.984;2024-01-30T03:47:13;2.96;75.32
69589;SHT31;56792;50.644;17.984;2024-01-30T03:49:44;2.94;75.24
69589;SHT31;56792;50.644;17.984;2024-01-30T03:52:15;2.92;75.30
69589;SHT31;56792;50.644;17.984;2024-01-30T03:54:46;2.96;75.29
69589;SHT31;56792;50.644;17.984;2024-01-30T03:57:17;2.97;75.27
69589;SHT31;56792;50.644;17.984;2024-01-30T03:59:49;2.98;75.21
69589;SHT31;56792;50.644;17.984;2024-01-30T04:02:20;2.96;75.33
69589;SHT31;56792;50.644;17.984;2024-01-30T04:04:51;2.95;75.32
69589;SHT31;56792;50.644;17.984;2024-01-30T04:07:22;2.99;75.28
69589;SHT31;56792;50.644;17.984;2024-01-30T04:09:54;3.03;75.17
69589;SHT31;56792;50.644;17.984;2024-01-30T04:12:25;3.05;75.10
69589;SHT31;56792;50.644;17.984;2024-01-30T04:14:56;3.07;75.09
69589;SHT31;56792;50.644;17.984;2024-01-30T04:17:27;3.03;75.17
69589;SHT31;56792;50.644;17.984;2024-01-30T04:19:59;3.04;75.15
69589;SHT31;56792;50.644;17.984;2024-01-30T04:22:31;3.05;75.13
69589;SHT31;56792;50.644;17.984;2024-01-30T04:25:02;3.07;75.00
69589;SHT31;56792;50.644;17.984;2024-01-30T04:27:34;3.09;74.87
69589;SHT31;56792;50.644;17.984;2024-01-30T04:30:06;3.08;74.81
69589;SHT31;56792;50.644;17.984;2024-01-30T04:32:39;3.07;74.79
69589;SHT31;56792;50.644;17.984;2024-01-30T04:35:10;3.12;74.64
69589;SHT31;56792;50.644;17.984;2024-01-30T04:37:41;3.11;74.64
69589;SHT31;56792;50.644;17.984;2024-01-30T04:40:12;3.10;74.71
69589;SHT31;56792;50.644;17.984;2024-01-30T04:42:43;3.07;74.72
69589;SHT31;56792;50.644;17.984;2024-01-30T04:45:14;3.08;74.72
69589;SHT31;56792;50.644;17.984;2024-01-30T04:47:46;3.08;74.70
69589;SHT31;56792;50.644;17.984;2024-01-30T04:50:17;3.06;74.72
69589;SHT31;56792;50.644;17.984;2024-01-30T04:52:48;3.05;74.72
69589;SHT31;56792;50.644;17.984;2024-01-30T04:55:19;3.06;74.67
69589;SHT31;56792;50.644;17.984;2024-01-30T04:57:50;3.08;74.60
69589;SHT31;56792;50.644;17.984;2024-01-30T05:00:21;3.06;74.60
69589;SHT31;56792;50.644;17.984;2024-01-30T05:02:52;3.04;74.66
69589;SHT31;56792;50.644;17.984;2024-01-30T05:05:23;3.06;74.61
69589;SHT31;56792;50.644;17.984;2024-01-30T05:07:54;3.08;74.50
69589;SHT31;56792;50.644;17.984;2024-01-30T05:10:26;3.06;74.54
69589;SHT31;56792;50.644;17.984;2024-01-30T05:12:57;3.07;74.49
69589;SHT31;56792;50.644;17.984;2024-01-30T05:15:28;3.05;74.50
69589;SHT31;56792;50.644;17.984;2024-01-30T05:17:59;3.03;74.52
69589;SHT31;56792;50.644;17.984;2024-01-30T05:20:30;3.04;74.53
69589;SHT31;56792;50.644;17.984;2024-01-30T05:23:01;2.99;74.58
69589;SHT31;56792;50.644;17.984;2024-01-30T05:25:33;2.98;74.63
69589;SHT31;56792;50.644;17.984;2024-01-30T05:28:04;3.02;74.50
69589;SHT31;56792;50.644;17.984;2024-01-30T05:30:36;2.98;74.58
69589;SHT31;56792;50.644;17.984;2024-01-30T05:33:07;2.98;74.58
69589;SHT31;56792;50.644;17.984;2024-01-30T05:35:39;2.97;74.61
69589;SHT31;56792;50.644;17.984;2024-01-30T05:38:11;2.97;74.54
69589;SHT31;56792;50.644;17.984;2024-01-30T05:40:43;2.97;74.51
69589;SHT31;56792;50.644;17.984;2024-01-30T05:43:14;2.98;74.50
69589;SHT31;56792;50.644;17.984;2024-01-30T05:45:45;2.98;74.57
69589;SHT31;56792;50.644;17.984;2024-01-30T05:48:16;2.96;74.63
69589;SHT31;56792;50.644;17.984;2024-01-30T05:50:48;2.94;74.67
69589;SHT31;56792;50.644;17.984;2024-01-30T05:53:19;2.92;74.72
69589;SHT31;56792;50.644;17.984;2024-01-30T05:55:50;2.91;74.80
69589;SHT31;56792;50.644;17.984;2024-01-30T05:58:21;2.93;74.70
69589;SHT31;56792;50.644;17.984;2024-01-30T06:00:52;2.95;74.64
69589;SHT31;56792;50.644;17.984;2024-01-30T06:03:23;2.96;74.57
69589;SHT31;56792;50.644;17.984;2024-01-30T06:05:54;2.97;74.45
69589;SHT31;56792;50.644;17.984;2024-01-30T06:08:25;2.97;74.35
69589;SHT31;56792;50.644;17.984;2024-01-30T06:10:56;2.94;74.40
69589;SHT31;56792;50.644;17.984;2024-01-30T06:13:28;2.91;74.45
69589;SHT31;56792;50.644;17.984;2024-01-30T06:16:00;2.89;74.48
69589;SHT31;56792;50.644;17.984;2024-01-30T06:18:32;2.88;74.45
69589;SHT31;56792;50.644;17.984;2024-01-30T06:21:03;2.87;74.35
69589;SHT31;56792;50.644;17.984;2024-01-30T06:23:35;2.89;74.27
69589;SHT31;56792;50.644;17.984;2024-01-30T06:26:06;2.89;74.18
69589;SHT31;56792;50.644;17.984;2024-01-30T06:28:37;2.92;73.96
69589;SHT31;56792;50.644;17.984;2024-01-30T06:31:08;2.95;73.81
69589;SHT31;56792;50.644;17.984;2024-01-30T06:33:39;2.97;73.59
69589;SHT31;56792;50.644;17.984;2024-01-30T06:36:10;2.96;73.52
69589;SHT31;56792;50.644;17.984;2024-01-30T06:38:41;2.93;73.64
69589;SHT31;56792;50.644;17.984;2024-01-30T06:41:13;2.95;73.42
69589;SHT31;56792;50.644;17.984;2024-01-30T06:43:44;2.94;73.46
69589;SHT31;56792;50.644;17.984;2024-01-30T06:46:15;2.92;73.50
69589;SHT31;56792;50.644;17.984;2024-01-30T06:48:46;2.90;73.51
69589;SHT31;56792;50.644;17.984;2024-01-30T06:51:17;2.90;73.47
69589;SHT31;56792;50.644;17.984;2024-01-30T06:53:48;2.92;73.31
69589;SHT31;56792;50.644;17.984;2024-01-30T06:56:19;2.96;73.18
69589;SHT31;56792;50.644;17.984;2024-01-30T06:58:50;2.96;73.24
69589;SHT31;56792;50.644;17.984;2024-01-30T07:01:21;2.95;73.19
69589;SHT31;56792;50.644;17.984;2024-01-30T07:03:59;2.97;73.16
69589;SHT31;56792;50.644;17.984;2024-01-30T07:06:30;2.97;73.15
69589;SHT31;56792;50.644;17.984;2024-01-30T07:09:01;2.98;73.05
69589;SHT31;56792;50.644;17.984;2024-01-30T07:11:32;3.01;72.95
69589;SHT31;56792;50.644;17.984;2024-01-30T07:14:03;3.04;72.82
69589;SHT31;56792;50.644;17.984;2024-01-30T07:16:35;3.06;72.85
69589;SHT31;56792;50.644;17.984;2024-01-30T07:19:06;3.06;72.83
69589;SHT31;56792;50.644;17.984;2024-01-30T07:21:37;3.09;72.62
69589;SHT31;56792;50.644;17.984;2024-01-30T07:24:08;3.15;72.35
69589;SHT31;56792;50.644;17.984;2024-01-30T07:26:39;3.18;72.30
69589;SHT31;56792;50.644;17.984;2024-01-30T07:29:10;3.22;72.16
69589;SHT31;56792;50.644;17.984;2024-01-30T07:31:41;3.26;72.16
69589;SHT31;56792;50.644;17.984;2024-01-30T07:34:12;3.30;71.98
69589;SHT31;56792;50.644;17.984;2024-01-30T07:36:44;3.35;71.81
69589;SHT31;56792;50.644;17.984;2024-01-30T07:39:15;3.42;71.45
69589;SHT31;56792;50.644;17.984;2024-01-30T07:41:46;3.48;71.23
69589;SHT31;56792;50.644;17.984;2024-01-30T07:44:17;3.56;70.91
69589;SHT31;56792;50.644;17.984;2024-01-30T07:46:48;3.63;70.71
69589;SHT31;56792;50.644;17.984;2024-01-30T07:49:19;3.68;70.56
69589;SHT31;56792;50.644;17.984;2024-01-30T07:51:50;3.71;70.64
69589;SHT31;56792;50.644;17.984;2024-01-30T07:54:22;3.76;70.36
69589;SHT31;56792;50.644;17.984;2024-01-30T07:56:53;3.85;70.08
69589;SHT31;56792;50.644;17.984;2024-01-30T07:59:24;3.89;69.75
69589;SHT31;56792;50.644;17.984;2024-01-30T08:01:55;3.94;69.72
69589;SHT31;56792;50.644;17.984;2024-01-30T08:04:26;3.99;69.50
69589;SHT31;56792;50.644;17.984;2024-01-30T08:06:57;4.05;69.40
69589;SHT31;56792;50.644;17.984;2024-01-30T08:09:28;4.14;68.88
69589;SHT31;56792;50.644;17.984;2024-01-30T08:11:59;4.22;68.45
69589;SHT31;56792;50.644;17.984;2024-01-30T08:14:30;4.25;68.61
69589;SHT31;56792;50.644;17.984;2024-01-30T08:17:02;4.29;68.37
69589;SHT31;56792;50.644;17.984;2024-01-30T08:19:34;4.38;68.03
69589;SHT31;56792;50.644;17.984;2024-01-30T08:22:05;4.53;67.03
69589;SHT31;56792;50.644;17.984;2024-01-30T08:24:36;4.62;66.48
69589;SHT31;56792;50.644;17.984;2024-01-30T08:27:08;4.68;66.33
69589;SHT31;56792;50.644;17.984;2024-01-30T08:29:39;4.75;65.77
69589;SHT31;56792;50.644;17.984;2024-01-30T08:32:10;4.82;65.58
69589;SHT31;56792;50.644;17.984;2024-01-30T08:34:41;4.89;65.56
69589;SHT31;56792;50.644;17.984;2024-01-30T08:37:12;4.96;65.61
69589;SHT31;56792;50.644;17.984;2024-01-30T08:39:45;5.07;65.42
69589;SHT31;56792;50.644;17.984;2024-01-30T08:42:16;5.14;65.02
69589;SHT31;56792;50.644;17.984;2024-01-30T08:44:49;5.20;64.82
69589;SHT31;56792;50.644;17.984;2024-01-30T08:47:20;5.25;64.21
69589;SHT31;56792;50.644;17.984;2024-01-30T08:49:52;5.32;64.39
69589;SHT31;56792;50.644;17.984;2024-01-30T08:52:23;5.40;63.56
69589;SHT31;56792;50.644;17.984;2024-01-30T08:54:54;5.46;63.34
69589;SHT31;56792;50.644;17.984;2024-01-30T08:57:25;5.51;62.82
69589;SHT31;56792;50.644;17.984;2024-01-30T08:59:57;5.54;63.05
69589;SHT31;56792;50.644;17.984;2024-01-30T09:02:33;5.57;63.15
69589;SHT31;56792;50.644;17.984;2024-01-30T09:05:04;5.60;63.06
69589;SHT31;56792;50.644;17.984;2024-01-30T09:07:36;5.62;62.94
69589;SHT31;56792;50.644;17.984;2024-01-30T09:10:08;5.63;63.31
69589;SHT31;56792;50.644;17.984;2024-01-30T09:12:39;5.71;63.06
69589;SHT31;56792;50.644;17.984;2024-01-30T09:15:11;5.82;62.69
69589;SHT31;56792;50.644;17.984;2024-01-30T09:17:42;5.92;62.26
69589;SHT31;56792;50.644;17.984;2024-01-30T09:20:13;6.06;61.48
69589;SHT31;56792;50.644;17.984;2024-01-30T09:22:46;6.17;61.62
69589;SHT31;56792;50.644;17.984;2024-01-30T09:25:17;6.29;61.50
69589;SHT31;56792;50.644;17.984;2024-01-30T09:27:48;6.36;61.04
69589;SHT31;56792;50.644;17.984;2024-01-30T09:30:19;6.47;60.80
69589;SHT31;56792;50.644;17.984;2024-01-30T09:32:50;6.58;60.76
69589;SHT31;56792;50.644;17.984;2024-01-30T09:35:21;6.66;60.48
69589;SHT31;56792;50.644;17.984;2024-01-30T09:37:53;6.76;59.91
69589;SHT31;56792;50.644;17.984;2024-01-30T09:40:25;6.87;59.43
69589;SHT31;56792;50.644;17.984;2024-01-30T09:42:56;6.95;59.81
69589;SHT31;56792;50.644;17.984;2024-01-30T09:45:28;7.04;58.88
69589;SHT31;56792;50.644;17.984;2024-01-30T09:48:03;7.14;58.40
69589;SHT31;56792;50.644;17.984;2024-01-30T09:50:35;7.25;58.05
69589;SHT31;56792;50.644;17.984;2024-01-30T09:53:06;7.34;57.51
69589;SHT31;56792;50.644;17.984;2024-01-30T09:55:38;7.42;56.92
69589;SHT31;56792;50.644;17.984;2024-01-30T09:58:15;7.51;56.94
69589;SHT31;56792;50.644;17.984;2024-01-30T10:00:46;7.60;56.57
69589;SHT31;56792;50.644;17.984;2024-01-30T10:03:17;7.66;56.31
69589;SHT31;56792;50.644;17.984;2024-01-30T10:05:50;7.74;55.71
69589;SHT31;56792;50.644;17.984;2024-01-30T10:08:22;7.84;56.27
69589;SHT31;56792;50.644;17.984;2024-01-30T10:10:56;7.97;55.56
69589;SHT31;56792;50.644;17.984;2024-01-30T10:13:28;8.05;54.78
69589;SHT31;56792;50.644;17.984;2024-01-30T10:15:59;8.15;54.87
69589;SHT31;56792;50.644;17.984;2024-01-30T10:18:32;8.27;54.53
69589;SHT31;56792;50.644;17.984;2024-01-30T10:21:03;8.36;54.11
69589;SHT31;56792;50.644;17.984;2024-01-30T10:23:35;8.40;53.09
69589;SHT31;56792;50.644;17.984;2024-01-30T10:26:06;8.46;53.39
69589;SHT31;56792;50.644;17.984;2024-01-30T10:28:38;8.51;52.48
69589;SHT31;56792;50.644;17.984;2024-01-30T10:31:09;8.53;52.18
69589;SHT31;56792;50.644;17.984;2024-01-30T10:33:43;8.55;51.63
69589;SHT31;56792;50.644;17.984;2024-01-30T10:36:15;8.53;51.20
69589;SHT31;56792;50.644;17.984;2024-01-30T10:38:50;8.59;51.45
69589;SHT31;56792;50.644;17.984;2024-01-30T10:41:24;8.71;52.15
69589;SHT31;56792;50.644;17.984;2024-01-30T10:44:08;8.84;52.57
69589;SHT31;56792;50.644;17.984;2024-01-30T10:46:42;9.00;51.68
69589;SHT31;56792;50.644;17.984;2024-01-30T10:49:18;9.05;50.88
69589;SHT31;56792;50.644;17.984;2024-01-30T10:51:51;9.12;50.69
69589;SHT31;56792;50.644;17.984;2024-01-30T10:54:24;9.25;51.35
69589;SHT31;56792;50.644;17.984;2024-01-30T10:56:56;9.30;50.61
69589;SHT31;56792;50.644;17.984;2024-01-30T10:59:31;9.39;50.47
69589;SHT31;56792;50.644;17.984;2024-01-30T11:02:03;9.45;49.88
69589;SHT31;56792;50.644;17.984;2024-01-30T11:04:38;9.49;49.63
69589;SHT31;56792;50.644;17.984;2024-01-30T11:07:16;9.54;49.87
69589;SHT31;56792;50.644;17.984;2024-01-30T11:09:52;9.66;49.97
69589;SHT31;56792;50.644;17.984;2024-01-30T11:12:31;9.76;48.92
69589;SHT31;56792;50.644;17.984;2024-01-30T11:15:08;9.76;48.82
69589;SHT31;56792;50.644;17.984;2024-01-30T11:17:42;9.84;48.60
69589;SHT31;56792;50.644;17.984;2024-01-30T11:20:18;9.94;49.65
69589;SHT31;56792;50.644;17.984;2024-01-30T11:22:53;10.03;48.24
69589;SHT31;56792;50.644;17.984;2024-01-30T11:25:26;9.91;48.23
69589;SHT31;56792;50.644;17.984;2024-01-30T11:27:58;9.87;47.79
69589;SHT31;56792;50.644;17.984;2024-01-30T11:30:30;9.84;48.24
69589;SHT31;56792;50.644;17.984;2024-01-30T11:33:03;10.01;48.86
69589;SHT31;56792;50.644;17.984;2024-01-30T11:35:38;10.16;49.00
69589;SHT31;56792;50.644;17.984;2024-01-30T11:38:12;10.23;48.00
69589;SHT31;56792;50.644;17.984;2024-01-30T11:40:44;10.09;46.56
69589;SHT31;56792;50.644;17.984;2024-01-30T11:43:17;9.87;47.71
69589;SHT31;56792;50.644;17.984;2024-01-30T11:45:49;9.99;49.41
69589;SHT31;56792;50.644;17.984;2024-01-30T11:48:20;10.18;47.98
69589;SHT31;56792;50.644;17.984;2024-01-30T11:50:51;10.17;48.14
69589;SHT31;56792;50.644;17.984;2024-01-30T11:53:23;10.26;47.68
69589;SHT31;56792;50.644;17.984;2024-01-30T11:55:54;10.24;47.51
69589;SHT31;56792;50.644;17.984;2024-01-30T11:58:26;10.22;47.11
69589;SHT31;56792;50.644;17.984;2024-01-30T12:00:57;10.15;46.89
69589;SHT31;56792;50.644;17.984;2024-01-30T12:03:28;10.22;48.00
69589;SHT31;56792;50.644;17.984;2024-01-30T12:05:59;10.31;47.39
69589;SHT31;56792;50.644;17.984;2024-01-30T12:08:33;10.29;47.21
69589;SHT31;56792;50.644;17.984;2024-01-30T12:11:06;10.22;46.99
69589;SHT31;56792;50.644;17.984;2024-01-30T12:13:37;10.14;47.32
69589;SHT31;56792;50.644;17.984;2024-01-30T12:16:09;10.12;47.61
69589;SHT31;56792;50.644;17.984;2024-01-30T12:18:40;10.11;47.20
69589;SHT31;56792;50.644;17.984;2024-01-30T12:21:11;10.02;46.87
69589;SHT31;56792;50.644;17.984;2024-01-30T12:23:45;9.96;46.78
69589;SHT31;56792;50.644;17.984;2024-01-30T12:26:17;9.98;47.63
69589;SHT31;56792;50.644;17.984;2024-01-30T12:28:49;9.96;47.50
69589;SHT31;56792;50.644;17.984;2024-01-30T12:31:26;9.93;47.38
69589;SHT31;56792;50.644;17.984;2024-01-30T12:34:00;9.86;47.00
69589;SHT31;56792;50.644;17.984;2024-01-30T12:36:32;9.76;46.86
69589;SHT31;56792;50.644;17.984;2024-01-30T12:39:03;9.63;46.99
69589;SHT31;56792;50.644;17.984;2024-01-30T12:41:34;9.60;47.68
69589;SHT31;56792;50.644;17.984;2024-01-30T12:44:05;9.57;47.93
69589;SHT31;56792;50.644;17.984;2024-01-30T12:46:37;9.56;47.55
69589;SHT31;56792;50.644;17.984;2024-01-30T12:49:08;9.51;47.93
69589;SHT31;56792;50.644;17.984;2024-01-30T12:51:39;9.49;48.34
69589;SHT31;56792;50.644;17.984;2024-01-30T12:54:12;9.45;47.80
69589;SHT31;56792;50.644;17.984;2024-01-30T12:56:43;9.42;48.15
69589;SHT31;56792;50.644;17.984;2024-01-30T12:59:14;9.40;47.98
69589;SHT31;56792;50.644;17.984;2024-01-30T13:01:45;9.33;47.71
69589;SHT31;56792;50.644;17.984;2024-01-30T13:04:17;9.28;48.32
69589;SHT31;56792;50.644;17.984;2024-01-30T13:06:48;9.26;48.24
69589;SHT31;56792;50.644;17.984;2024-01-30T13:09:19;9.20;47.96
69589;SHT31;56792;50.644;17.984;2024-01-30T13:11:51;9.19;48.56
69589;SHT31;56792;50.644;17.984;2024-01-30T13:14:22;9.12;47.74
69589;SHT31;56792;50.644;17.984;2024-01-30T13:16:53;9.03;48.42
69589;SHT31;56792;50.644;17.984;2024-01-30T13:19:24;9.02;48.27
69589;SHT31;56792;50.644;17.984;2024-01-30T13:21:56;8.92;47.83
69589;SHT31;56792;50.644;17.984;2024-01-30T13:24:27;8.84;48.01
69589;SHT31;56792;50.644;17.984;2024-01-30T13:26:58;8.80;49.00
69589;SHT31;56792;50.644;17.984;2024-01-30T13:29:32;8.84;49.52
69589;SHT31;56792;50.644;17.984;2024-01-30T13:32:03;8.83;49.05
69589;SHT31;56792;50.644;17.984;2024-01-30T13:34:35;8.83;49.20
69589;SHT31;56792;50.644;17.984;2024-01-30T13:37:06;8.80;49.27
69589;SHT31;56792;50.644;17.984;2024-01-30T13:39:38;8.74;48.74
69589;SHT31;56792;50.644;17.984;2024-01-30T13:42:09;8.67;49.17
69589;SHT31;56792;50.644;17.984;2024-01-30T13:44:40;8.66;49.85
69589;SHT31;56792;50.644;17.984;2024-01-30T13:47:11;8.66;50.44
69589;SHT31;56792;50.644;17.984;2024-01-30T13:49:43;8.65;49.92
69589;SHT31;56792;50.644;17.984;2024-01-30T13:52:14;8.58;49.88
69589;SHT31;56792;50.644;17.984;2024-01-30T13:54:45;8.55;50.53
69589;SHT31;56792;50.644;17.984;2024-01-30T13:57:16;8.52;50.20
69589;SHT31;56792;50.644;17.984;2024-01-30T13:59:47;8.47;50.15
69589;SHT31;56792;50.644;17.984;2024-01-30T14:02:18;8.44;50.53
69589;SHT31;56792;50.644;17.984;2024-01-30T14:04:49;8.38;50.55
69589;SHT31;56792;50.644;17.984;2024-01-30T14:07:20;8.32;50.32
69589;SHT31;56792;50.644;17.984;2024-01-30T14:09:51;8.27;50.59
69589;SHT31;56792;50.644;17.984;2024-01-30T14:12:22;8.22;50.66
69589;SHT31;56792;50.644;17.984;2024-01-30T14:14:54;8.19;50.78
69589;SHT31;56792;50.644;17.984;2024-01-30T14:17:25;8.12;51.14
69589;SHT31;56792;50.644;17.984;2024-01-30T14:19:56;8.06;51.36
69589;SHT31;56792;50.644;17.984;2024-01-30T14:22:27;8.00;51.23
69589;SHT31;56792;50.644;17.984;2024-01-30T14:24:58;7.94;51.77
69589;SHT31;56792;50.644;17.984;2024-01-30T14:27:30;7.89;51.89
69589;SHT31;56792;50.644;17.984;2024-01-30T14:30:02;7.80;51.97
69589;SHT31;56792;50.644;17.984;2024-01-30T14:32:38;7.76;52.22
69589;SHT31;56792;50.644;17.984;2024-01-30T14:35:11;7.69;52.50
69589;SHT31;56792;50.644;17.984;2024-01-30T14:37:42;7.61;52.25
69589;SHT31;56792;50.644;17.984;2024-01-30T14:40:13;7.57;52.36
69589;SHT31;56792;50.644;17.984;2024-01-30T14:42:45;7.50;52.61
69589;SHT31;56792;50.644;17.984;2024-01-30T14:45:16;7.43;52.89
69589;SHT31;56792;50.644;17.984;2024-01-30T14:47:48;7.36;53.28
69589;SHT31;56792;50.644;17.984;2024-01-30T14:50:22;7.29;53.86
69589;SHT31;56792;50.644;17.984;2024-01-30T14:52:54;7.20;53.94
69589;SHT31;56792;50.644;17.984;2024-01-30T14:55:25;7.12;54.13
69589;SHT31;56792;50.644;17.984;2024-01-30T14:57:57;7.06;54.05
69589;SHT31;56792;50.644;17.984;2024-01-30T15:00:28;7.01;54.45
69589;SHT31;56792;50.644;17.984;2024-01-30T15:02:59;6.93;54.57
69589;SHT31;56792;50.644;17.984;2024-01-30T15:05:31;6.87;54.73
69589;SHT31;56792;50.644;17.984;2024-01-30T15:08:02;6.82;54.88
69589;SHT31;56792;50.644;17.984;2024-01-30T15:10:34;6.75;55.14
69589;SHT31;56792;50.644;17.984;2024-01-30T15:13:05;6.72;55.03
69589;SHT31;56792;50.644;17.984;2024-01-30T15:15:37;6.66;55.49
69589;SHT31;56792;50.644;17.984;2024-01-30T15:18:08;6.61;55.70
69589;SHT31;56792;50.644;17.984;2024-01-30T15:20:40;6.54;55.82
69589;SHT31;56792;50.644;17.984;2024-01-30T15:23:11;6.47;56.11
69589;SHT31;56792;50.644;17.984;2024-01-30T15:25:42;6.40;56.50
69589;SHT31;56792;50.644;17.984;2024-01-30T15:28:13;6.33;56.63
69589;SHT31;56792;50.644;17.984;2024-01-30T15:30:45;6.26;57.05
69589;SHT31;56792;50.644;17.984;2024-01-30T15:33:16;6.19;57.25
69589;SHT31;56792;50.644;17.984;2024-01-30T15:35:47;6.13;57.32
69589;SHT31;56792;50.644;17.984;2024-01-30T15:38:19;6.11;57.41
69589;SHT31;56792;50.644;17.984;2024-01-30T15:40:50;6.06;57.72
69589;SHT31;56792;50.644;17.984;2024-01-30T15:43:21;5.97;58.03
69589;SHT31;56792;50.644;17.984;2024-01-30T15:45:52;5.89;58.38
69589;SHT31;56792;50.644;17.984;2024-01-30T15:48:24;5.84;58.76
69589;SHT31;56792;50.644;17.984;2024-01-30T15:50:56;5.78;59.00
69589;SHT31;56792;50.644;17.984;2024-01-30T15:53:27;5.73;59.23
69589;SHT31;56792;50.644;17.984;2024-01-30T15:55:58;5.70;59.38